Decoded Metar for UMOO (MOGILEV in BELARUS) (IATA:N/A) | Meteo·Mobile Aviation Weather
aviador You're here:

UMOO Decoded Metar

MOGILEV in BELARUS
Report Time2019-10-21 07:00:00
UTC Time2019-10-21 07:09:24
Flight Rules mvfr MVFR
Wind220° at 6 kt
W.Decomp.*RWY 13: 0.8 kt HW 5.9 kt RCW
Visibility5000 m
Phenomena:Mist
Clouds:N/A
Expected CloudBase > 400 ft AGL from Temp-Dew spread
CeilingNone
Temp11°C (ISA -3)
Dew Point10°C (94% RH)
AAT8.9°C
QNH1019 hPa
Density Alt276 ft
Elevation636 ft
Report Wrong Elevation
Raw Report
METAR UMOO 210700Z 22003MPS 5000 BR NSC 11/10 Q1019 R13/CLRD// NOSIG=

Extra information for UMOO:More info

Metar Taf Metar & Taf Last 4 Metars F.Rules Stats Wind Profile Meteogram Temp Stats Airport Information Weather charts Add Link Nearby VenuesMetar ALERT Operation Metar Decoded Social comments